Time;durP1;ratioP1;P1;durP2;ratioP2;P2;SDS_P1;SDS_P2;PMS_P1;PMS_P2;Temp;Humidity;BMP_temperature;BMP_pressure;BME280_temperature;BME280_humidity;BME280_pressure;Samples;Min_cycle;Max_cycle;Signal;HPM_P1;HPM_P2
2022/06/13 00:01:52;;;;;;;20.77;7.10;;;12.10;99.90;;;;;;5073037;28;20044;-69
2022/06/13 00:04:18;;;;;;;21.83;6.90;;;12.30;99.90;;;;;;5073229;28;20392;-68
2022/06/13 00:06:44;;;;;;;19.63;6.35;;;12.00;99.90;;;;;;5073148;28;20056;-68
2022/06/13 00:09:10;;;;;;;21.23;6.78;;;12.30;99.90;;;;;;5055466;28;20052;-69
2022/06/13 00:11:36;;;;;;;;;;;11.90;99.90;;;;;;5073115;28;20468;-69
2022/06/13 00:14:03;;;;;;;21.25;6.97;;;12.60;99.90;;;;;;5072447;28;19927;-68
2022/06/13 00:16:29;;;;;;;16.25;6.40;;;11.90;99.90;;;;;;5072856;28;20091;-67
2022/06/13 00:18:56;;;;;;;17.90;6.90;;;12.20;99.90;;;;;;5073043;28;20045;-69
2022/06/13 00:21:25;;;;;;;20.58;7.25;;;12.30;99.90;;;;;;5055075;28;20093;-68
2022/06/13 00:23:51;;;;;;;20.08;7.45;;;12.30;99.90;;;;;;5072516;28;20052;-69
2022/06/13 00:26:22;;;;;;;18.27;7.18;;;12.30;99.90;;;;;;5072524;28;20063;-69
2022/06/13 00:28:49;;;;;;;19.38;7.43;;;12.20;99.90;;;;;;5072229;28;20412;-68
2022/06/13 00:31:15;;;;;;;16.15;6.95;;;12.40;99.90;;;;;;5072449;28;20708;-68
2022/06/13 00:33:41;;;;;;;;;;;11.90;99.90;;;;;;5072718;28;20060;-69
2022/06/13 00:36:07;;;;;;;21.58;7.47;;;11.90;99.90;;;;;;5072398;28;19920;-68
2022/06/13 00:38:32;;;;;;;21.77;6.97;;;12.10;99.90;;;;;;5072362;28;20492;-68
2022/06/13 00:40:58;;;;;;;24.63;7.13;;;12.10;99.90;;;;;;5054540;28;20059;-68
2022/06/13 00:43:25;;;;;;;15.77;7.70;;;12.30;99.90;;;;;;5072233;28;20135;-68
2022/06/13 00:45:50;;;;;;;;;;;12.10;99.90;;;;;;5072778;28;20052;-68
2022/06/13 00:48:19;;;;;;;23.92;7.85;;;12.30;99.90;;;;;;5072385;28;19936;-69
2022/06/13 00:50:59;;;;;;;18.13;7.15;;;12.00;99.90;;;;;;5072286;28;20499;-68
2022/06/13 00:53:36;;;;;;;22.00;8.68;;;13.30;99.90;;;;;;5072133;28;20043;-68
2022/06/13 00:56:09;;;;;;;18.10;8.00;;;12.10;99.90;;;;;;5072071;28;20080;-70
2022/06/13 00:58:43;;;;;;;23.48;7.57;;;13.00;99.90;;;;;;5072264;28;20040;-70
2022/06/13 01:01:09;;;;;;;23.60;7.93;;;12.60;99.90;;;;;;5072185;28;20041;-69
2022/06/13 01:03:36;;;;;;;18.75;7.85;;;12.80;99.90;;;;;;5072068;28;20044;-68
2022/06/13 01:06:04;;;;;;;20.77;7.93;;;12.30;99.90;;;;;;5054102;28;20050;-68
2022/06/13 01:08:32;;;;;;;16.80;7.70;;;12.50;99.90;;;;;;5072168;28;20082;-68
2022/06/13 01:11:18;;;;;;;23.30;8.13;;;12.60;99.90;;;;;;5071587;28;20048;-68
2022/06/13 01:14:22;;;;;;;21.48;7.70;;;14.20;99.90;;;;;;5072013;28;20051;-69
2022/06/13 01:17:09;;;;;;;19.67;8.20;;;12.70;99.90;;;;;;5071952;28;20056;-66
2022/06/13 01:20:05;;;;;;;29.17;8.98;;;12.60;99.90;;;;;;5071654;28;20047;-68
2022/06/13 01:22:39;;;;;;;15.40;7.40;;;12.80;99.90;;;;;;5071978;28;20087;-67
2022/06/13 01:25:38;;;;;;;21.33;7.65;;;12.90;99.90;;;;;;5071845;28;20044;-68
2022/06/13 01:28:10;;;;;;;21.33;8.35;;;12.80;99.90;;;;;;5071871;28;20404;-68
2022/06/13 01:30:51;;;;;;;18.63;8.13;;;12.90;99.90;;;;;;5071862;28;20067;-68
2022/06/13 01:33:37;;;;;;;19.77;7.47;;;13.10;99.90;;;;;;5071647;28;20061;-68
2022/06/13 01:36:21;;;;;;;20.85;7.22;;;12.90;99.90;;;;;;5071436;28;20084;-68
2022/06/13 01:38:49;;;;;;;18.83;7.72;;;13.00;99.90;;;;;;5071766;28;20052;-67
2022/06/13 01:41:24;;;;;;;18.10;7.18;;;13.00;99.90;;;;;;5071665;28;20049;-68
2022/06/13 01:44:15;;;;;;;23.75;7.10;;;13.10;99.90;;;;;;5071743;28;20053;-69
2022/06/13 01:46:47;;;;;;;21.25;7.43;;;13.20;99.90;;;;;;5071678;28;20376;-69
2022/06/13 01:49:19;;;;;;;24.02;7.40;;;13.00;99.90;;;;;;5071542;28;20056;-68
2022/06/13 01:51:51;;;;;;;18.45;7.78;;;13.00;99.90;;;;;;5071219;28;20087;-67
2022/06/13 01:54:44;;;;;;;20.58;6.55;;;13.00;99.90;;;;;;5071577;28;20424;-68
2022/06/13 01:57:29;;;;;;;18.20;6.53;;;12.80;99.90;;;;;;5071669;28;20052;-68
2022/06/13 02:00:01;;;;;;;15.02;5.90;;;13.20;99.90;;;;;;5071720;28;20087;-68
2022/06/13 02:02:58;;;;;;;16.40;6.53;;;13.30;99.90;;;;;;5071644;28;20177;-69
2022/06/13 02:05:32;;;;;;;22.20;6.50;;;13.00;99.90;;;;;;5071197;28;20481;-69
2022/06/13 02:08:06;;;;;;;19.88;6.43;;;13.00;99.90;;;;;;5071553;28;20114;-69
2022/06/13 02:10:37;;;;;;;25.88;6.60;;;12.80;99.90;;;;;;5071519;28;20064;-69
2022/06/13 02:13:09;;;;;;;14.48;6.25;;;12.90;99.90;;;;;;5071602;28;20126;-68
2022/06/13 02:15:43;;;;;;;17.08;6.28;;;13.10;99.90;;;;;;5071518;28;20048;-68
2022/06/13 02:18:21;;;;;;;14.70;6.13;;;14.20;99.90;;;;;;5071864;28;20067;-69
2022/06/13 02:20:51;;;;;;;17.35;6.32;;;12.70;99.90;;;;;;5071583;28;20129;-69
2022/06/13 02:23:21;;;;;;;16.42;6.45;;;12.90;99.90;;;;;;5072014;28;20097;-68
2022/06/13 02:25:59;;;;;;;17.30;6.68;;;12.90;99.90;;;;;;5075078;28;20044;-68
2022/06/13 02:28:31;;;;;;;19.23;6.70;;;13.00;99.90;;;;;;5057479;28;20369;-68
2022/06/13 02:31:03;;;;;;;18.63;6.45;;;12.80;99.90;;;;;;5074867;28;20493;-69
2022/06/13 02:33:37;;;;;;;17.85;6.60;;;12.80;99.90;;;;;;5086825;28;20064;-69
2022/06/13 02:36:16;;;;;;;26.73;7.30;;;13.20;99.90;;;;;;5054855;28;20088;-68
2022/06/13 02:38:58;;;;;;;16.73;5.70;;;13.00;99.90;;;;;;5054516;28;20494;-68
2022/06/13 02:41:28;;;;;;;16.55;6.03;;;12.90;99.90;;;;;;5054624;28;20468;-67
2022/06/13 02:44:04;;;;;;;17.48;5.93;;;12.90;99.90;;;;;;5054676;28;20053;-67
2022/06/13 02:46:45;;;;;;;14.77;6.22;;;13.20;99.90;;;;;;5054862;28;20037;-67
2022/06/13 02:49:26;;;;;;;15.07;5.05;;;13.10;99.90;;;;;;5054728;28;20159;-67
2022/06/13 02:52:13;;;;;;;14.88;5.47;;;12.90;99.90;;;;;;5054605;28;20144;-68
2022/06/13 02:54:42;;;;;;;;;;;12.90;99.90;;;;;;5055000;28;20048;-68
2022/06/13 02:57:38;;;;;;;22.10;5.70;;;12.60;99.90;;;;;;5054426;28;19928;-69
2022/06/13 03:00:17;;;;;;;12.80;4.78;;;12.70;99.90;;;;;;5054220;28;20048;-69
2022/06/13 03:02:56;;;;;;;16.25;5.43;;;12.60;99.90;;;;;;5054526;28;20063;-67
2022/06/13 03:05:42;;;;;;;11.63;4.38;;;12.70;99.90;;;;;;5052964;28;20052;-67
2022/06/13 03:08:27;;;;;;;10.32;4.22;;;12.90;99.90;;;;;;5054076;28;20520;-69
2022/06/13 03:11:06;;;;;;;12.88;4.30;;;13.00;99.90;;;;;;5054257;28;20053;-68
2022/06/13 03:13:58;;;;;;;12.98;4.72;;;12.80;99.90;;;;;;5053052;28;20049;-67
2022/06/13 03:16:36;;;;;;;9.13;3.40;;;12.90;99.90;;;;;;5050883;28;20053;-67
2022/06/13 03:19:40;;;;;;;13.38;3.70;;;12.80;99.90;;;;;;5053746;28;20482;-69
2022/06/13 03:22:15;;;;;;;8.80;3.40;;;12.90;99.90;;;;;;5042261;28;20060;-68
2022/06/13 03:25:07;;;;;;;13.27;4.38;;;12.90;99.90;;;;;;5054031;28;20053;-67
2022/06/13 03:27:54;;;;;;;8.65;3.40;;;12.90;99.90;;;;;;5054030;28;20064;-68
2022/06/13 03:30:23;;;;;;;8.55;3.08;;;13.00;99.90;;;;;;5053967;28;20044;-68
2022/06/13 03:35:42;;;;;;;10.32;3.33;;;13.00;99.90;;;;;;5073465;28;20202;-68
2022/06/13 03:38:17;;;;;;;10.43;3.25;;;12.80;99.90;;;;;;5073540;28;20129;-68
2022/06/13 03:40:47;;;;;;;11.15;4.13;;;13.00;99.90;;;;;;5073823;28;20045;-68
2022/06/13 03:43:37;;;;;;;8.60;3.50;;;12.70;99.90;;;;;;5073780;28;20052;-67
2022/06/13 03:46:13;;;;;;;9.45;3.67;;;12.80;99.90;;;;;;5088876;28;20392;-68
2022/06/13 03:48:47;;;;;;;12.95;3.80;;;13.00;99.90;;;;;;5089240;28;20052;-68
2022/06/13 03:51:40;;;;;;;15.82;3.83;;;13.90;99.90;;;;;;5073628;28;20052;-68
2022/06/13 03:54:23;;;;;;;13.40;4.07;;;13.30;99.90;;;;;;5073424;28;20053;-67
2022/06/13 03:57:01;;;;;;;17.75;4.03;;;13.00;99.90;;;;;;5073514;28;20045;-68
2022/06/13 03:59:37;;;;;;;16.17;4.20;;;12.80;99.90;;;;;;5073134;28;20052;-68
2022/06/13 04:02:16;;;;;;;10.95;3.90;;;12.90;99.90;;;;;;5073219;28;20127;-68
2022/06/13 04:04:46;;;;;;;16.13;3.90;;;13.10;99.90;;;;;;5073347;28;20040;-68
2022/06/13 04:07:12;;;;;;;12.88;3.90;;;13.40;99.90;;;;;;5073188;28;20051;-68
2022/06/13 04:09:42;;;;;;;12.23;3.90;;;13.10;99.90;;;;;;5073180;28;20056;-69
2022/06/13 04:12:08;;;;;;;10.52;3.88;;;14.80;99.90;;;;;;5073251;28;20059;-69
2022/06/13 04:14:58;;;;;;;10.65;3.70;;;13.20;99.90;;;;;;5073045;28;20045;-68
2022/06/13 04:17:47;;;;;;;15.38;4.05;;;13.30;99.90;;;;;;5055165;28;20412;-68
2022/06/13 04:20:21;;;;;;;15.68;4.20;;;13.50;99.90;;;;;;5073151;28;20068;-68
2022/06/13 04:22:56;;;;;;;13.40;3.72;;;13.30;99.90;;;;;;5072663;28;20090;-68
2022/06/13 04:25:46;;;;;;;20.08;4.10;;;13.10;99.90;;;;;;5072880;28;20036;-68
2022/06/13 04:28:32;;;;;;;13.38;4.35;;;13.30;99.90;;;;;;5072734;28;20045;-68
2022/06/13 04:31:01;;;;;;;12.05;2.28;;;13.60;99.90;;;;;;5073002;28;20083;-72
2022/06/13 04:33:39;;;;;;;4.85;1.48;;;13.30;99.90;;;;;;5072744;28;20122;-68
2022/06/13 04:36:07;;;;;;;6.95;1.63;;;13.30;99.90;;;;;;5072374;28;20094;-69
2022/06/13 04:38:34;;;;;;;34.25;3.97;;;13.40;99.90;;;;;;5072261;28;20714;-63
2022/06/13 04:41:03;;;;;;;10.93;2.50;;;14.10;99.90;;;;;;5072354;28;20587;-67
2022/06/13 04:43:34;;;;;;;7.93;1.77;;;12.50;99.90;;;;;;5072231;28;20048;-69
2022/06/13 04:46:12;;;;;;;9.95;1.85;;;12.50;99.90;;;;;;5071933;28;20041;-70
2022/06/13 04:48:40;;;;;;;4.75;1.50;;;12.20;99.90;;;;;;5072738;28;20105;-70
2022/06/13 04:51:16;;;;;;;7.13;2.00;;;11.70;99.90;;;;;;5071695;28;20064;-69
2022/06/13 04:53:53;;;;;;;6.72;1.92;;;11.90;99.90;;;;;;5087834;28;20098;-68
2022/06/13 04:56:21;;;;;;;5.63;2.42;;;11.70;99.90;;;;;;5072211;28;20080;-68
2022/06/13 04:58:48;;;;;;;7.78;2.90;;;12.70;99.90;;;;;;5071767;28;20048;-67
2022/06/13 05:01:23;;;;;;;12.95;3.10;;;12.00;99.90;;;;;;5071806;28;20048;-69
2022/06/13 05:03:50;;;;;;;13.43;3.70;;;13.00;99.90;;;;;;5072263;28;20056;-67
2022/06/13 05:06:26;;;;;;;14.98;3.78;;;12.10;99.90;;;;;;5054489;28;20366;-67
2022/06/13 05:09:00;;;;;;;18.17;3.58;;;12.20;99.90;;;;;;5072291;28;20059;-67
2022/06/13 05:11:30;;;;;;;8.63;2.95;;;13.10;99.90;;;;;;5072154;28;20036;-66
2022/06/13 05:14:19;;;;;;;10.98;3.35;;;12.60;99.90;;;;;;5071896;28;20125;-67
2022/06/13 05:16:53;;;;;;;12.57;3.10;;;12.30;99.90;;;;;;5071912;28;20082;-68
2022/06/13 05:19:33;;;;;;;15.25;3.05;;;12.90;99.90;;;;;;5071788;28;20048;-69
2022/06/13 05:22:13;;;;;;;16.92;3.10;;;12.80;99.90;;;;;;5072004;28;20166;-67
2022/06/13 05:25:18;;;;;;;10.77;3.33;;;13.10;99.90;;;;;;5071985;28;20154;-68
2022/06/13 05:27:43;;;;;;;13.20;3.05;;;12.90;99.90;;;;;;5053344;28;20060;-68
2022/06/13 05:30:18;;;;;;;10.68;2.90;;;13.80;99.90;;;;;;5071960;28;20182;-68
2022/06/13 05:32:44;;;;;;;13.07;3.08;;;12.80;99.90;;;;;;5071766;28;20060;-69
2022/06/13 05:35:15;;;;;;;;;;;13.20;99.90;;;;;;5072244;28;20054;-67
2022/06/13 05:37:41;;;;;;;9.80;2.65;;;12.80;99.90;;;;;;5071866;28;20260;-67
2022/06/13 05:40:14;;;;;;;17.33;3.33;;;13.00;99.90;;;;;;5087430;28;20110;-67
2022/06/13 05:42:40;;;;;;;11.30;3.45;;;13.40;99.90;;;;;;5071477;28;20102;-68
2022/06/13 05:45:06;;;;;;;18.10;2.70;;;12.90;99.90;;;;;;5071607;28;20037;-68
2022/06/13 05:47:31;;;;;;;13.45;2.35;;;13.10;99.90;;;;;;5071786;28;20050;-68
2022/06/13 05:49:57;;;;;;;11.75;2.42;;;12.90;99.90;;;;;;5071674;28;20473;-67
2022/06/13 05:52:23;;;;;;;;;;;13.10;99.90;;;;;;5072500;28;20056;-66
2022/06/13 05:54:49;;;;;;;16.30;2.75;;;13.30;99.90;;;;;;5071693;28;20003;-68
2022/06/13 05:57:16;;;;;;;6.60;2.95;;;12.90;99.90;;;;;;5072176;28;20047;-69
2022/06/13 05:59:41;;;;;;;13.88;2.35;;;13.00;99.90;;;;;;5091590;28;20088;-67
2022/06/13 06:02:09;;;;;;;15.15;2.83;;;12.70;99.90;;;;;;5075619;28;20105;-67
2022/06/13 06:04:35;;;;;;;21.05;4.70;;;12.80;99.90;;;;;;5075312;28;20117;-68
2022/06/13 06:07:01;;;;;;;25.08;2.67;;;12.40;99.90;;;;;;5075754;28;20476;-69
2022/06/13 06:09:26;;;;;;;20.33;3.85;;;13.50;99.90;;;;;;5075476;28;20040;-65
2022/06/13 06:11:52;;;;;;;10.48;2.50;;;12.70;99.90;;;;;;5075612;28;20469;-67
2022/06/13 06:14:18;;;;;;;9.00;2.22;;;12.90;99.90;;;;;;5075445;28;20052;-67
2022/06/13 06:16:43;;;;;;;6.72;1.80;;;13.10;99.90;;;;;;5090954;28;20051;-69
2022/06/13 06:19:09;;;;;;;6.10;1.85;;;12.90;99.90;;;;;;5075326;28;20040;-68
2022/06/13 06:21:35;;;;;;;11.15;1.83;;;13.10;99.90;;;;;;5075251;28;20508;-70
2022/06/13 06:24:00;;;;;;;12.93;2.20;;;13.10;99.90;;;;;;5075222;28;20052;-65
2022/06/13 06:26:27;;;;;;;12.45;1.85;;;13.30;99.90;;;;;;5075037;28;20037;-67
2022/06/13 06:28:53;;;;;;;11.25;1.88;;;13.30;99.90;;;;;;5075127;28;20094;-68
2022/06/13 06:31:19;;;;;;;6.70;1.77;;;13.40;99.90;;;;;;5074850;28;20044;-68
2022/06/13 06:33:45;;;;;;;5.35;1.50;;;14.40;99.90;;;;;;5074827;28;20060;-68
2022/06/13 06:36:14;;;;;;;9.02;2.30;;;14.10;99.90;;;;;;5111215;28;20101;-69
2022/06/13 06:38:40;;;;;;;10.00;2.00;;;14.40;99.90;;;;;;5102241;28;20514;-67
2022/06/13 06:41:06;;;;;;;12.02;2.00;;;14.00;99.90;;;;;;5095165;28;20132;-67
2022/06/13 06:43:32;;;;;;;12.55;2.42;;;14.60;99.90;;;;;;5105736;28;20463;-65
2022/06/13 06:45:57;;;;;;;13.48;2.70;;;14.00;99.90;;;;;;5115437;28;20039;-65
2022/06/13 06:48:24;;;;;;;13.27;2.63;;;14.00;99.90;;;;;;5096330;28;20480;-64
2022/06/13 06:50:51;;;;;;;7.70;2.22;;;13.90;99.90;;;;;;5077084;28;20050;-66
2022/06/13 06:53:22;;;;;;;10.63;2.40;;;13.90;99.90;;;;;;5094907;28;20048;-66
2022/06/13 07:05:26;;;;;;;5.93;2.05;;;13.90;99.90;;;;;;5150848;27;20113;-64
2022/06/13 07:07:52;;;;;;;7.65;1.80;;;14.10;99.90;;;;;;5101646;28;20044;-64
2022/06/13 07:10:19;;;;;;;11.40;2.38;;;14.50;99.90;;;;;;5114074;28;20052;-67
2022/06/13 07:12:45;;;;;;;8.65;1.67;;;14.70;99.90;;;;;;5126442;28;20554;-65
2022/06/13 07:15:13;;;;;;;;;;;14.50;99.90;;;;;;5123026;27;20547;-66
2022/06/13 07:17:39;;;;;;;9.82;1.85;;;14.40;99.90;;;;;;5126394;28;19923;-66
2022/06/13 07:20:05;;;;;;;9.02;1.98;;;14.20;99.90;;;;;;5119847;28;20046;-68
2022/06/13 07:22:30;;;;;;;;;;;14.40;99.90;;;;;;5125263;28;20052;-68
2022/06/13 07:24:56;;;;;;;9.02;1.77;;;14.50;99.90;;;;;;5125849;28;19926;-66
2022/06/13 07:27:22;;;;;;;7.80;1.65;;;14.70;99.90;;;;;;5128749;28;20047;-66
2022/06/13 07:29:47;;;;;;;10.10;2.03;;;14.50;99.90;;;;;;5129629;28;20077;-69
2022/06/13 07:32:23;;;;;;;8.18;2.38;;;14.90;99.90;;;;;;5129598;28;20479;-70
2022/06/13 07:34:52;;;;;;;6.18;1.85;;;14.80;99.90;;;;;;5129690;28;20735;-67
2022/06/13 07:40:07;;;;;;;7.03;1.55;;;15.10;99.90;;;;;;5129452;28;20104;-69
2022/06/13 07:42:39;;;;;;;7.85;2.22;;;15.40;99.90;;;;;;5129419;28;20138;-67
2022/06/13 07:45:06;;;;;;;6.50;1.52;;;15.10;99.90;;;;;;5129263;28;20078;-71
2022/06/13 07:47:33;;;;;;;9.15;2.00;;;15.00;99.90;;;;;;5128295;27;20046;-67
2022/06/13 07:49:58;;;;;;;5.30;1.80;;;14.90;99.90;;;;;;5128782;28;20043;-68
2022/06/13 07:52:24;;;;;;;10.60;1.83;;;15.20;99.90;;;;;;5128942;28;20368;-68
2022/06/13 07:54:50;;;;;;;12.65;1.98;;;15.30;99.90;;;;;;5128911;28;20489;-75
2022/06/13 07:57:16;;;;;;;10.77;1.70;;;15.50;99.90;;;;;;5129188;28;20047;-68
2022/06/13 07:59:42;;;;;;;14.40;2.15;;;15.60;99.90;;;;;;5127748;28;20514;-68
2022/06/13 08:02:18;;;;;;;4.40;1.40;;;15.50;99.90;;;;;;5128996;28;20122;-66
2022/06/13 08:04:44;;;;;;;6.63;1.58;;;15.60;99.90;;;;;;5129115;28;20058;-70
2022/06/13 08:07:11;;;;;;;10.60;1.98;;;15.80;99.90;;;;;;5129289;28;20059;-66
2022/06/13 08:09:38;;;;;;;6.18;1.83;;;15.90;99.90;;;;;;5128909;28;20094;-68
2022/06/13 08:12:06;;;;;;;7.80;1.52;;;15.40;99.90;;;;;;5128933;28;20096;-69
2022/06/13 08:14:32;;;;;;;8.48;2.47;;;15.50;99.90;;;;;;5125945;28;20040;-69
2022/06/13 08:16:57;;;;;;;8.88;1.63;;;15.80;99.90;;;;;;5114806;28;20051;-66
2022/06/13 08:19:23;;;;;;;;;;;15.50;99.90;;;;;;5115820;28;20395;-66
2022/06/13 08:21:51;;;;;;;6.75;1.30;;;15.60;99.90;;;;;;5114906;28;19972;-65
2022/06/13 08:24:17;;;;;;;13.85;2.58;;;15.90;99.90;;;;;;5115077;28;20055;-67
2022/06/13 08:26:43;;;;;;;;;;;15.70;99.90;;;;;;5115589;28;20142;-67
2022/06/13 08:29:08;;;;;;;5.00;1.50;;;15.40;99.90;;;;;;5115142;28;19972;-67
2022/06/13 08:31:34;;;;;;;;;;;15.60;99.90;;;;;;5115501;28;20039;-66
2022/06/13 08:34:00;;;;;;;7.28;1.40;;;15.70;99.90;;;;;;5114993;28;19974;-64
2022/06/13 08:36:25;;;;;;;5.47;2.00;;;15.60;99.90;;;;;;5096805;28;20062;-65
2022/06/13 08:38:51;;;;;;;;;;;15.50;99.90;;;;;;5115368;28;20051;-66
2022/06/13 08:41:48;;;;;;;5.20;1.75;;;16.00;99.90;;;;;;5096946;28;20386;-67
2022/06/13 08:44:35;;;;;;;9.05;1.80;;;15.50;99.90;;;;;;5114740;28;20044;-66
2022/06/13 08:47:12;;;;;;;9.35;1.88;;;15.50;99.90;;;;;;5114716;28;20039;-65
2022/06/13 08:49:51;;;;;;;13.55;2.30;;;16.10;99.90;;;;;;5114921;28;20082;-65
2022/06/13 08:52:35;;;;;;;13.93;2.00;;;15.80;99.90;;;;;;5114470;28;20131;-66
2022/06/13 08:55:04;;;;;;;8.68;1.90;;;16.30;99.90;;;;;;5114653;28;20097;-66
2022/06/13 08:57:33;;;;;;;11.57;2.10;;;15.60;99.90;;;;;;5114579;28;20051;-66
2022/06/13 09:00:08;;;;;;;11.18;2.20;;;16.00;99.90;;;;;;5114519;28;20054;-67
2022/06/13 09:03:06;;;;;;;8.35;1.98;;;16.00;99.90;;;;;;5111952;28;20050;-71
2022/06/13 09:05:47;;;;;;;8.80;2.05;;;16.30;99.90;;;;;;5103700;28;20055;-68
2022/06/13 09:08:35;;;;;;;11.38;1.67;;;16.40;99.90;;;;;;5112322;28;20425;-66
2022/06/13 09:11:23;;;;;;;10.98;2.20;;;16.20;99.90;;;;;;5112222;28;20552;-68
2022/06/13 09:14:11;;;;;;;11.48;1.85;;;16.20;99.90;;;;;;5113368;28;20047;-66
2022/06/13 09:16:41;;;;;;;15.55;1.90;;;16.50;99.90;;;;;;5110046;28;20092;-69
2022/06/13 09:19:28;;;;;;;13.32;3.05;;;16.70;99.90;;;;;;5113999;28;20051;-69
2022/06/13 09:22:00;;;;;;;12.68;1.95;;;16.50;99.90;;;;;;5095964;28;20044;-64
2022/06/13 09:25:04;;;;;;;10.05;2.15;;;16.40;99.90;;;;;;5114040;28;20122;-67
2022/06/13 09:27:35;;;;;;;9.20;2.20;;;16.40;99.90;;;;;;5112914;28;20443;-64
2022/06/13 09:30:14;;;;;;;10.30;1.90;;;16.80;99.90;;;;;;5113882;28;20055;-68
2022/06/13 09:32:53;;;;;;;10.23;2.08;;;16.60;99.90;;;;;;5113583;28;20507;-64
2022/06/13 09:35:27;;;;;;;7.75;1.90;;;16.50;99.90;;;;;;5114159;28;20124;-65
2022/06/13 09:38:38;;;;;;;7.47;1.52;;;16.20;99.90;;;;;;5113823;28;20051;-67
2022/06/13 09:41:04;;;;;;;12.45;2.33;;;16.40;99.90;;;;;;5100032;28;20066;-65
2022/06/13 09:43:29;;;;;;;;;;;17.00;99.90;;;;;;5095817;28;20044;-66
2022/06/13 09:46:13;;;;;;;13.73;2.35;;;16.70;99.90;;;;;;5113268;28;20379;-67
2022/06/13 09:48:45;;;;;;;11.57;2.13;;;16.80;99.90;;;;;;5113532;28;20043;-66
2022/06/13 09:51:27;;;;;;;8.20;2.00;;;16.70;99.90;;;;;;5113588;28;20503;-65
2022/06/13 09:54:14;;;;;;;16.13;3.05;;;17.00;99.90;;;;;;5113574;28;20497;-66
2022/06/13 09:56:58;;;;;;;14.10;2.65;;;17.10;99.90;;;;;;5113512;28;20130;-64
2022/06/13 09:59:34;;;;;;;14.77;3.15;;;17.20;99.90;;;;;;5113526;28;20043;-66
2022/06/13 10:02:24;;;;;;;11.68;2.65;;;17.10;99.90;;;;;;5113697;28;20047;-63
2022/06/13 10:04:50;;;;;;;11.70;2.33;;;17.20;99.90;;;;;;5095144;28;20049;-67
2022/06/13 10:07:28;;;;;;;;;;;16.90;99.90;;;;;;5113773;28;20130;-64
2022/06/13 10:10:02;;;;;;;;;;;17.10;99.90;;;;;;5113695;28;19926;-67
2022/06/13 10:13:16;;;;;;;12.82;2.78;;;17.10;99.90;;;;;;5113199;28;19971;-68
2022/06/13 10:15:41;;;;;;;14.10;3.05;;;16.70;99.90;;;;;;5113117;28;20085;-63
2022/06/13 10:18:19;;;;;;;;;;;16.80;99.90;;;;;;5113022;28;20055;-65
2022/06/13 10:20:54;;;;;;;18.85;2.58;;;17.20;99.90;;;;;;5112948;28;19973;-65
2022/06/13 10:23:56;;;;;;;14.75;2.63;;;17.20;99.90;;;;;;5112913;28;20040;-64
2022/06/13 10:26:41;;;;;;;26.25;3.95;;;17.30;99.90;;;;;;5112877;28;20043;-63
2022/06/13 10:29:31;;;;;;;16.85;3.63;;;16.60;99.90;;;;;;5112834;28;20086;-67
2022/06/13 10:32:26;;;;;;;14.18;2.78;;;16.20;99.90;;;;;;5112296;28;20396;-67
2022/06/13 10:35:20;;;;;;;13.23;2.88;;;16.10;99.90;;;;;;5112754;28;20039;-65
2022/06/13 10:37:55;;;;;;;11.13;2.20;;;16.20;99.90;;;;;;5112718;28;20055;-68
2022/06/13 10:40:22;;;;;;;9.45;3.00;;;16.40;99.90;;;;;;5112715;28;20040;-67
2022/06/13 10:42:48;;;;;;;9.65;2.28;;;16.20;99.90;;;;;;5112551;28;20514;-71
2022/06/13 10:45:14;;;;;;;;;;;16.70;99.90;;;;;;5112935;28;20036;-69
2022/06/13 10:48:02;;;;;;;11.47;2.30;;;16.90;99.90;;;;;;5112419;28;20424;-69
2022/06/13 10:50:36;;;;;;;;;;;17.00;99.90;;;;;;5112846;28;20278;-67
2022/06/13 10:53:07;;;;;;;14.25;2.92;;;17.20;99.90;;;;;;5112482;28;20002;-67
2022/06/13 10:55:39;;;;;;;13.52;3.25;;;17.40;99.90;;;;;;5112061;28;20053;-75
2022/06/13 10:58:14;;;;;;;12.90;2.80;;;17.30;99.90;;;;;;5083169;28;20085;-67
2022/06/13 11:00:42;;;;;;;10.85;2.17;;;17.40;99.90;;;;;;5106201;28;20520;-67
2022/06/13 11:03:14;;;;;;;16.95;2.20;;;16.90;99.90;;;;;;5108970;28;20044;-74
2022/06/13 11:05:55;;;;;;;10.45;2.30;;;16.90;99.90;;;;;;5104328;28;20130;-64
2022/06/13 11:08:22;;;;;;;11.65;2.78;;;17.10;99.90;;;;;;5108635;28;20047;-66
2022/06/13 11:10:56;;;;;;;9.10;2.45;;;16.90;99.90;;;;;;5109195;28;20116;-67
2022/06/13 11:13:32;;;;;;;13.88;2.85;;;16.80;99.90;;;;;;5106850;28;20051;-71
2022/06/13 11:24:48;;;;;;;10.05;2.20;;;17.30;99.90;;;;;;5107981;28;20621;-72
2022/06/13 11:27:40;;;;;;;13.80;2.65;;;17.30;99.90;;;;;;5107360;28;20059;-68
2022/06/13 11:30:27;;;;;;;14.27;2.38;;;17.30;99.90;;;;;;5108987;28;20073;-67
2022/06/13 11:33:06;;;;;;;13.00;2.40;;;17.10;99.90;;;;;;5108546;28;20047;-70
2022/06/13 11:35:37;;;;;;;13.90;2.20;;;17.70;99.90;;;;;;5109134;28;20117;-65
2022/06/13 11:38:32;;;;;;;12.20;2.10;;;18.00;99.90;;;;;;5108351;28;20051;-69
2022/06/13 11:41:01;;;;;;;13.02;2.30;;;17.70;99.90;;;;;;5107989;28;20488;-78
2022/06/13 11:43:48;;;;;;;7.30;1.90;;;17.50;99.90;;;;;;5109439;28;20156;-68
2022/06/13 11:46:32;;;;;;;;;;;17.40;99.90;;;;;;5106918;28;20050;-70
2022/06/13 11:49:24;;;;;;;11.00;1.90;;;17.80;99.90;;;;;;5106763;28;19943;-72
2022/06/13 11:52:08;;;;;;;8.73;1.83;;;17.60;99.90;;;;;;5102640;28;20067;-66
2022/06/13 11:54:34;;;;;;;12.10;1.60;;;17.30;99.90;;;;;;5112200;28;20075;-71
2022/06/13 11:57:18;;;;;;;;;;;17.10;99.90;;;;;;5112407;28;20082;-71
2022/06/13 11:59:49;;;;;;;7.35;1.60;;;16.60;99.90;;;;;;5108976;28;19996;-71
2022/06/13 12:02:18;;;;;;;9.70;1.85;;;16.50;99.90;;;;;;5108993;28;20071;-65
2022/06/13 12:04:48;;;;;;;9.40;1.60;;;16.30;99.90;;;;;;5104501;28;20536;-72
2022/06/13 12:07:31;;;;;;;10.38;2.00;;;16.00;99.90;;;;;;5112865;28;20161;-75
2022/06/13 12:10:00;;;;;;;9.95;2.38;;;16.20;99.90;;;;;;5112630;28;20488;-73
2022/06/13 12:12:42;;;;;;;12.27;1.77;;;16.00;99.90;;;;;;5113999;28;20043;-74
2022/06/13 12:15:12;;;;;;;10.50;2.17;;;16.40;99.90;;;;;;5114217;28;20043;-70
2022/06/13 12:17:45;;;;;;;8.55;1.95;;;16.40;99.90;;;;;;5114901;28;20448;-74
2022/06/13 12:20:21;;;;;;;8.18;1.67;;;16.60;99.90;;;;;;5114792;28;20047;-76
2022/06/13 12:22:46;;;;;;;8.88;1.70;;;16.90;99.90;;;;;;5115164;28;20047;-73
2022/06/13 12:25:20;;;;;;;;;;;16.60;99.90;;;;;;5097230;28;20054;-74
2022/06/13 12:28:05;;;;;;;7.45;1.48;;;17.10;99.90;;;;;;5115060;28;19931;-71
2022/06/13 12:30:52;;;;;;;8.48;1.45;;;16.30;99.90;;;;;;5115123;28;20135;-72
2022/06/13 12:33:47;;;;;;;10.82;1.88;;;16.90;99.90;;;;;;5114960;28;20047;-72
2022/06/13 12:36:31;;;;;;;9.65;1.85;;;17.30;99.90;;;;;;5115001;28;20051;-68
2022/06/13 12:39:15;;;;;;;6.53;1.80;;;17.50;99.90;;;;;;5114677;28;20043;-72
2022/06/13 12:41:59;;;;;;;10.93;1.98;;;17.20;99.90;;;;;;5114774;28;20047;-75
2022/06/13 12:44:59;;;;;;;9.65;1.85;;;17.70;99.90;;;;;;5114627;28;20047;-72
2022/06/13 12:47:43;;;;;;;6.00;1.70;;;18.00;99.90;;;;;;5115056;28;20654;-71
2022/06/13 12:50:26;;;;;;;7.95;1.90;;;17.80;99.90;;;;;;5114620;28;20055;-69
2022/06/13 12:53:19;;;;;;;7.70;1.67;;;17.30;99.90;;;;;;5114558;28;20126;-72
2022/06/13 12:56:27;;;;;;;9.13;1.83;;;17.40;99.90;;;;;;5114523;28;20055;-73
2022/06/13 12:59:15;;;;;;;9.98;2.30;;;17.70;99.90;;;;;;5114580;28;20398;-72
2022/06/13 13:01:55;;;;;;;10.75;1.55;;;17.20;99.90;;;;;;5114282;28;20601;-70
2022/06/13 13:04:24;;;;;;;4.38;1.27;;;17.50;99.90;;;;;;5113781;28;20499;-70
2022/06/13 13:07:27;;;;;;;11.05;1.63;;;17.60;99.90;;;;;;5113939;28;20065;-73
2022/06/13 13:09:56;;;;;;;7.88;1.80;;;17.70;99.90;;;;;;5113816;28;20471;-73
2022/06/13 13:12:50;;;;;;;6.45;1.65;;;18.10;99.90;;;;;;5096321;28;20043;-67
2022/06/13 13:15:31;;;;;;;9.30;1.75;;;18.10;99.90;;;;;;5112163;28;20054;-72
2022/06/13 13:18:44;;;;;;;6.85;1.38;;;18.30;99.90;;;;;;5100001;28;20048;-69
2022/06/13 13:21:29;;;;;;;5.55;1.40;;;18.40;99.90;;;;;;4991684;28;20371;-69
2022/06/13 13:24:13;;;;;;;7.80;1.70;;;18.20;99.90;;;;;;5001204;28;20525;-71
2022/06/13 13:26:57;;;;;;;8.52;1.40;;;18.30;99.90;;;;;;5091183;28;20071;-73
2022/06/13 13:29:32;;;;;;;7.90;1.52;;;18.40;99.90;;;;;;5103444;28;20059;-73
2022/06/13 13:32:21;;;;;;;6.18;1.52;;;18.10;99.90;;;;;;5106525;28;20044;-72
2022/06/13 13:34:47;;;;;;;9.23;1.60;;;17.90;99.90;;;;;;5097335;28;20495;-72
2022/06/13 13:37:42;;;;;;;7.68;1.73;;;18.00;99.90;;;;;;5111146;28;20044;-70
2022/06/13 13:40:18;;;;;;;7.00;1.65;;;17.90;99.90;;;;;;5106199;28;20126;-74
2022/06/13 13:42:44;;;;;;;;;;;18.00;99.90;;;;;;5109880;28;20052;-72
2022/06/13 13:45:19;;;;;;;6.83;1.63;;;18.00;99.90;;;;;;5111492;28;20016;-71
2022/06/13 13:47:48;;;;;;;6.47;1.42;;;18.10;99.90;;;;;;5111142;28;20062;-71
2022/06/13 13:50:18;;;;;;;12.20;2.13;;;18.10;99.90;;;;;;5092285;28;20055;-74
2022/06/13 13:52:53;;;;;;;11.30;2.05;;;18.20;99.90;;;;;;5110405;28;20505;-72